Time;durP1;ratioP1;P1;durP2;ratioP2;P2;SDS_P1;SDS_P2;PMS_P1;PMS_P2;Temp;Humidity;BMP_temperature;BMP_pressure;BME280_temperature;BME280_humidity;BME280_pressure;Samples;Min_cycle;Max_cycle;Signal;HPM_P1;HPM_P2
2021/08/13 00:02:24;;;;;;;6.05;3.40;;;;;;;19.40;52.41;94067.22;5027141;28;20022;-57
2021/08/13 00:04:49;;;;;;;6.05;3.63;;;;;;;19.31;52.93;94059.53;5026840;28;20025;-58
2021/08/13 00:07:15;;;;;;;7.75;3.75;;;;;;;19.31;52.79;94061.59;5026858;28;20038;-57
2021/08/13 00:09:40;;;;;;;7.30;4.35;;;;;;;19.26;52.65;94063.34;5026802;28;20068;-57
2021/08/13 00:12:06;;;;;;;4.88;3.90;;;;;;;19.10;53.22;94070.59;5042781;28;20032;-58
2021/08/13 00:14:32;;;;;;;14.38;4.85;;;;;;;19.00;53.54;94067.06;5042028;28;20059;-57
2021/08/13 00:16:57;;;;;;;7.28;2.90;;;;;;;18.98;53.43;94055.72;5046028;28;20013;-58
2021/08/13 00:19:23;;;;;;;8.73;4.53;;;;;;;18.88;53.89;94071.78;5046270;28;20021;-57
2021/08/13 00:21:49;;;;;;;13.88;4.10;;;;;;;18.89;53.78;94071.19;5046319;28;20383;-58
2021/08/13 00:24:15;;;;;;;6.35;3.17;;;;;;;18.84;54.74;94068.69;5045908;28;20017;-58
2021/08/13 00:26:41;;;;;;;7.72;3.80;;;;;;;18.73;54.51;94064.41;5041925;28;20091;-58
2021/08/13 00:29:06;;;;;;;4.90;3.75;;;;;;;18.68;54.82;94064.69;5032619;28;20524;-58
2021/08/13 00:31:32;;;;;;;8.45;3.65;;;;;;;18.64;54.44;94067.94;5032680;28;20028;-57
2021/08/13 00:33:57;;;;;;;5.93;3.78;;;;;;;18.53;54.80;94068.50;5032458;28;20025;-57
2021/08/13 00:36:23;;;;;;;7.95;4.30;;;;;;;18.50;54.64;94066.13;5032610;28;20064;-57
2021/08/13 00:38:48;;;;;;;6.05;3.80;;;;;;;18.52;55.13;94063.50;5032278;28;20038;-57
2021/08/13 00:41:13;;;;;;;9.60;4.20;;;;;;;18.48;54.81;94071.56;5032357;28;20025;-58
2021/08/13 00:43:39;;;;;;;5.60;3.75;;;;;;;18.34;55.10;94060.06;5032229;28;20033;-58
2021/08/13 00:46:05;;;;;;;6.38;3.30;;;;;;;18.29;55.42;94069.47;5037930;28;20107;-57
2021/08/13 00:48:30;;;;;;;4.93;3.67;;;;;;;18.15;55.85;94076.75;5052348;28;20532;-58
2021/08/13 00:50:56;;;;;;;7.18;4.10;;;;;;;18.13;55.69;94088.53;5052250;28;20043;-58
2021/08/13 00:53:22;;;;;;;4.80;3.50;;;;;;;18.17;56.06;94083.25;5052320;28;20417;-58
2021/08/13 00:55:49;;;;;;;5.70;3.38;;;;;;;18.27;55.84;94085.34;5050812;28;20486;-58
2021/08/13 00:58:15;;;;;;;4.40;3.60;;;;;;;18.07;55.81;94095.72;5052143;28;20036;-58
2021/08/13 01:00:41;;;;;;;5.57;3.85;;;;;;;18.08;55.85;94091.63;5052101;28;20029;-57
2021/08/13 01:03:06;;;;;;;6.72;4.18;;;;;;;17.95;56.49;94094.81;5050584;28;20100;-54
2021/08/13 01:05:32;;;;;;;6.95;4.25;;;;;;;17.88;56.48;94101.22;5051909;28;20138;-53
2021/08/13 01:07:57;;;;;;;6.63;4.60;;;;;;;17.80;56.89;94101.31;5051648;28;20036;-54
2021/08/13 01:10:24;;;;;;;5.75;4.65;;;;;;;17.67;57.25;94098.19;5051793;28;20029;-54
2021/08/13 01:13:10;;;;;;;5.28;4.63;;;;;;;17.71;57.31;94099.25;5051937;28;20025;-59
2021/08/13 01:15:40;;;;;;;5.50;4.53;;;;;;;17.66;57.69;94100.25;5050727;28;20033;-57
2021/08/13 01:18:12;;;;;;;6.85;4.28;;;;;;;17.52;57.73;94095.63;5050673;28;20413;-58
2021/08/13 01:21:19;;;;;;;8.57;4.07;;;;;;;17.52;57.64;94104.00;5050412;28;20482;-59
2021/08/13 01:23:52;;;;;;;6.45;3.90;;;;;;;17.43;58.37;94100.50;5009370;28;20022;-58
2021/08/13 01:26:19;;;;;;;9.38;4.65;;;;;;;17.45;57.81;94100.66;4989892;28;20098;-59
2021/08/13 01:29:03;;;;;;;7.80;4.35;;;;;;;17.43;58.36;94102.59;4989745;28;20038;-61
2021/08/13 01:31:29;;;;;;;7.93;4.18;;;;;;;17.33;58.77;94096.19;4989766;28;20077;-61
2021/08/13 01:33:58;;;;;;;13.43;4.78;;;;;;;17.26;58.57;94074.72;4980262;28;20034;-59
2021/08/13 01:36:25;;;;;;;5.22;4.38;;;;;;;17.24;58.37;94077.31;5031382;28;20033;-60
2021/08/13 01:38:52;;;;;;;7.55;4.78;;;;;;;17.06;58.97;94070.31;5030652;28;20029;-59
2021/08/13 01:41:18;;;;;;;6.50;4.28;;;;;;;17.16;59.04;94090.63;5030143;28;20048;-59
2021/08/13 01:43:44;;;;;;;6.35;4.10;;;;;;;17.06;58.96;94096.16;5030065;28;20061;-58
2021/08/13 01:46:12;;;;;;;8.27;4.60;;;;;;;16.98;58.47;94089.91;5030006;28;20127;-60
2021/08/13 01:48:37;;;;;;;8.57;4.30;;;;;;;16.95;58.64;94099.44;5030139;28;20033;-59
2021/08/13 01:51:03;;;;;;;7.35;3.92;;;;;;;16.80;58.51;94079.34;5030116;28;20033;-59
2021/08/13 01:53:31;;;;;;;6.32;3.65;;;;;;;16.81;58.30;94092.72;5029843;28;20036;-58
2021/08/13 01:55:56;;;;;;;6.20;3.85;;;;;;;16.78;58.66;94095.91;5029954;28;20029;-58
2021/08/13 01:58:22;;;;;;;7.05;4.22;;;;;;;16.65;58.63;94078.19;5030063;28;20517;-58
2021/08/13 02:00:50;;;;;;;5.32;4.20;;;;;;;16.76;59.04;94092.97;5029622;28;20029;-58
2021/08/13 02:03:16;;;;;;;4.50;3.63;;;;;;;16.85;58.65;94095.09;5031126;28;20025;-58
2021/08/13 02:05:42;;;;;;;8.27;4.25;;;;;;;16.63;58.48;94080.81;5031079;28;20032;-58
2021/08/13 02:08:08;;;;;;;13.38;5.40;;;;;;;16.39;59.82;94087.19;5043047;28;20029;-57
2021/08/13 02:10:36;;;;;;;17.10;9.73;;;;;;;16.54;59.38;94086.31;5050667;28;20029;-57
2021/08/13 02:13:02;;;;;;;28.92;16.02;;;;;;;16.55;59.55;94094.09;5049262;28;20143;-57
2021/08/13 02:15:28;;;;;;;24.50;13.38;;;;;;;16.43;59.75;94084.72;5050413;28;20040;-56
2021/08/13 02:18:01;;;;;;;20.95;12.90;;;;;;;16.42;60.01;94088.06;5050622;28;20100;-57
2021/08/13 02:20:28;;;;;;;17.65;10.45;;;;;;;16.27;60.77;94079.84;5050715;28;20029;-58
2021/08/13 02:22:53;;;;;;;15.18;9.77;;;;;;;16.23;60.42;94083.03;5049213;28;20024;-58
2021/08/13 02:25:19;;;;;;;17.60;11.60;;;;;;;16.28;60.18;94079.28;5049076;28;20051;-58
2021/08/13 02:27:45;;;;;;;20.80;12.93;;;;;;;16.36;60.39;94084.78;5049104;28;20029;-61
2021/08/13 02:30:11;;;;;;;23.85;13.93;;;;;;;16.33;60.21;94092.22;5050548;28;20044;-60
2021/08/13 02:32:36;;;;;;;27.60;13.73;;;;;;;16.30;60.62;94092.66;5050120;28;20434;-60
2021/08/13 02:35:04;;;;;;;20.33;12.63;;;;;;;16.22;60.57;94089.91;5050097;28;20025;-59
2021/08/13 02:37:55;;;;;;;22.52;13.70;;;;;;;16.05;61.09;94098.22;5048749;28;20047;-60
2021/08/13 02:40:32;;;;;;;18.83;12.70;;;;;;;16.18;60.96;94099.97;5048909;28;20048;-58
2021/08/13 02:43:02;;;;;;;19.15;12.35;;;;;;;16.05;60.89;94095.44;5048899;28;20681;-58
2021/08/13 02:45:28;;;;;;;18.10;11.02;;;;;;;16.11;60.49;94101.53;5048893;28;20033;-58
2021/08/13 02:47:55;;;;;;;11.98;8.90;;;;;;;15.98;60.75;94104.63;5048790;28;20502;-57
2021/08/13 02:50:23;;;;;;;11.75;8.00;;;;;;;15.84;60.96;94100.63;5049715;28;20033;-57
2021/08/13 02:52:54;;;;;;;13.43;9.65;;;;;;;15.97;61.01;94103.13;5048806;28;20086;-55
2021/08/13 02:55:23;;;;;;;13.77;9.50;;;;;;;16.04;60.76;94098.81;5050116;28;20079;-56
2021/08/13 02:57:52;;;;;;;11.55;7.10;;;;;;;15.99;61.25;94099.78;5048765;28;20118;-58
2021/08/13 03:00:18;;;;;;;10.60;4.80;;;;;;;15.96;60.55;94103.72;5048622;28;20468;-58
2021/08/13 03:02:46;;;;;;;7.82;4.65;;;;;;;15.90;59.94;94115.06;5048637;28;20684;-57
2021/08/13 03:05:11;;;;;;;7.93;5.43;;;;;;;15.83;60.23;94105.44;5048602;28;20162;-58
2021/08/13 03:07:37;;;;;;;7.00;5.10;;;;;;;15.80;60.47;94111.44;5049977;28;20021;-58
2021/08/13 03:10:03;;;;;;;18.60;6.25;;;;;;;15.71;61.58;94109.25;5049310;28;20029;-59
2021/08/13 03:12:29;;;;;;;20.38;6.68;;;;;;;15.74;60.93;94105.34;5050016;28;20029;-60
2021/08/13 03:14:54;;;;;;;22.58;7.00;;;;;;;15.69;61.36;94109.81;5047235;28;20051;-60
2021/08/13 03:17:21;;;;;;;9.82;5.32;;;;;;;15.58;61.02;94104.69;5035616;28;20698;-59
2021/08/13 03:19:47;;;;;;;15.10;5.70;;;;;;;15.36;61.32;94099.22;5029905;28;20029;-59
2021/08/13 03:22:12;;;;;;;14.10;5.25;;;;;;;15.32;62.07;94119.09;5029932;28;20028;-59
2021/08/13 03:24:38;;;;;;;13.10;5.13;;;;;;;15.42;61.88;94124.81;5035100;28;20474;-60
2021/08/13 03:27:03;;;;;;;16.80;6.20;;;;;;;15.51;61.59;94121.44;5048301;28;20497;-60
2021/08/13 03:29:29;;;;;;;14.75;5.43;;;;;;;15.42;62.04;94119.97;5048603;28;20028;-57
2021/08/13 03:31:58;;;;;;;15.02;5.25;;;;;;;15.40;61.75;94122.56;5049724;28;20044;-58
2021/08/13 03:34:24;;;;;;;12.18;5.40;;;;;;;15.31;62.04;94120.38;5049786;28;20029;-57
2021/08/13 03:36:49;;;;;;;9.90;5.45;;;;;;;15.30;62.25;94120.97;5049681;28;20119;-56
2021/08/13 03:39:14;;;;;;;6.45;5.22;;;;;;;15.18;62.85;94123.44;5049592;28;20474;-56
2021/08/13 03:41:40;;;;;;;8.32;4.65;;;;;;;15.16;63.39;94121.19;5049301;28;20191;-58
2021/08/13 03:44:06;;;;;;;7.85;4.72;;;;;;;15.26;62.78;94120.59;5049378;28;20029;-50
2021/08/13 03:46:31;;;;;;;8.98;4.80;;;;;;;15.13;63.05;94124.38;5047234;28;20041;-54
2021/08/13 03:48:57;;;;;;;15.35;5.65;;;;;;;15.14;63.33;94115.47;5047092;28;20029;-52
2021/08/13 03:51:22;;;;;;;7.78;4.78;;;;;;;15.24;62.52;94123.22;5047186;28;20025;-57
2021/08/13 03:53:48;;;;;;;7.28;5.38;;;;;;;15.20;62.16;94112.47;5047541;28;20086;-56
2021/08/13 03:56:13;;;;;;;10.73;5.22;;;;;;;15.33;61.90;94122.63;5043122;28;20559;-52
2021/08/13 03:58:39;;;;;;;19.45;5.47;;;;;;;15.43;61.63;94124.25;5041960;28;20445;-54
2021/08/13 04:01:08;;;;;;;15.57;5.45;;;;;;;15.46;61.43;94125.19;5046554;28;20035;-53
2021/08/13 04:03:34;;;;;;;9.32;5.63;;;;;;;15.37;61.59;94123.72;5049185;28;20039;-56
2021/08/13 04:05:59;;;;;;;21.67;5.80;;;;;;;15.36;61.84;94127.03;5049805;28;20025;-54
2021/08/13 04:08:25;;;;;;;8.57;5.18;;;;;;;15.27;61.99;94136.00;5050596;28;20033;-52
2021/08/13 04:10:50;;;;;;;14.90;5.53;;;;;;;15.19;62.11;94131.22;5050706;28;20798;-57
2021/08/13 04:13:16;;;;;;;7.68;4.72;;;;;;;15.00;62.20;94130.91;5050509;28;20029;-58
2021/08/13 04:15:41;;;;;;;6.65;4.35;;;;;;;14.85;62.75;94114.28;5050474;28;20112;-58
2021/08/13 04:18:07;;;;;;;10.70;5.45;;;;;;;15.10;62.81;94129.03;5050609;28;20032;-58
2021/08/13 04:20:33;;;;;;;14.50;5.40;;;;;;;14.84;62.87;94115.56;5050686;28;20028;-57
2021/08/13 04:22:58;;;;;;;20.02;5.70;;;;;;;14.99;63.08;94123.13;5050428;28;20036;-56
2021/08/13 04:25:24;;;;;;;8.65;4.85;;;;;;;15.13;63.20;94129.94;5050293;28;20029;-57
2021/08/13 04:27:49;;;;;;;11.45;5.22;;;;;;;15.23;63.09;94127.28;5052265;28;20471;-56
2021/08/13 04:30:15;;;;;;;8.43;5.07;;;;;;;15.24;62.84;94128.78;5052828;28;20415;-55
2021/08/13 04:32:41;;;;;;;7.68;5.30;;;;;;;15.33;62.67;94125.41;5052651;28;20044;-55
2021/08/13 04:35:07;;;;;;;18.95;5.75;;;;;;;15.35;62.79;94126.31;5052628;28;20021;-57
2021/08/13 04:37:34;;;;;;;9.15;5.35;;;;;;;15.32;62.99;94119.09;5052616;28;20120;-56
2021/08/13 04:40:00;;;;;;;10.70;4.80;;;;;;;15.28;63.38;94127.09;5052588;28;20448;-57
2021/08/13 04:42:25;;;;;;;7.43;5.20;;;;;;;15.38;64.10;94122.41;5052626;28;20028;-56
2021/08/13 04:44:51;;;;;;;6.95;5.75;;;;;;;15.46;63.35;94125.19;5052208;28;20081;-56
2021/08/13 04:47:16;;;;;;;13.25;5.45;;;;;;;15.50;63.54;94125.53;5052079;28;20045;-57
2021/08/13 04:49:42;;;;;;;8.98;5.07;;;;;;;15.44;63.17;94092.34;5052116;28;20109;-56
2021/08/13 04:52:08;;;;;;;7.88;5.15;;;;;;;15.67;63.58;94115.22;5052432;28;20021;-57
2021/08/13 04:54:33;;;;;;;9.30;5.25;;;;;;;15.73;63.21;94118.53;5052135;28;20512;-55
2021/08/13 04:57:02;;;;;;;18.20;6.63;;;;;;;15.72;63.52;94122.59;5052216;28;20039;-57
2021/08/13 04:59:27;;;;;;;12.70;5.63;;;;;;;15.73;63.41;94123.34;5052302;28;20021;-56
2021/08/13 05:01:53;;;;;;;9.07;5.88;;;;;;;15.75;63.05;94112.38;5052214;28;20417;-56
2021/08/13 05:04:18;;;;;;;15.38;6.47;;;;;;;15.93;63.46;94128.59;5052180;28;20032;-56
2021/08/13 05:06:44;;;;;;;9.50;6.00;;;;;;;16.05;63.33;94131.66;5052177;28;20486;-56
2021/08/13 05:09:10;;;;;;;11.38;6.50;;;;;;;16.15;64.16;94138.09;5051730;28;20649;-58
2021/08/13 05:11:36;;;;;;;26.50;6.30;;;;;;;16.19;64.00;94138.44;5051800;28;20017;-57
2021/08/13 05:14:02;;;;;;;15.98;5.80;;;;;;;16.27;63.84;94141.88;5051495;28;20033;-58
2021/08/13 05:16:27;;;;;;;20.40;6.57;;;;;;;16.39;64.16;94147.75;5051687;28;20029;-57
2021/08/13 05:18:52;;;;;;;140.05;14.40;;;;;;;16.48;64.33;94141.53;5051595;28;20409;-56
2021/08/13 05:21:18;;;;;;;14.10;5.88;;;;;;;16.61;63.93;94136.41;5051513;28;20021;-56
2021/08/13 05:23:43;;;;;;;71.75;10.02;;;;;;;16.71;63.71;94132.97;5051477;28;20033;-59
2021/08/13 05:26:09;;;;;;;21.92;6.82;;;;;;;16.80;63.40;94138.66;5051180;28;20028;-59
2021/08/13 05:28:34;;;;;;;10.02;4.80;;;;;;;16.79;63.20;94128.06;5050370;28;20036;-59
2021/08/13 05:30:59;;;;;;;11.18;4.95;;;;;;;16.97;62.60;94140.72;5051432;28;20017;-60
2021/08/13 05:33:25;;;;;;;7.50;4.57;;;;;;;17.07;62.40;94147.09;5051663;28;20020;-59
2021/08/13 05:35:50;;;;;;;17.77;5.50;;;;;;;17.21;62.79;94139.88;5051440;28;20830;-59
2021/08/13 05:38:16;;;;;;;62.80;7.63;;;;;;;17.30;62.66;94148.31;5051556;28;20517;-58
2021/08/13 05:40:42;;;;;;;27.73;5.60;;;;;;;17.39;62.53;94144.13;5031189;28;20025;-55
2021/08/13 05:43:08;;;;;;;27.65;5.82;;;;;;;17.53;61.59;94147.34;5031643;28;20159;-57
2021/08/13 05:45:33;;;;;;;13.68;5.32;;;;;;;17.66;61.68;94144.19;5031136;28;20104;-57
2021/08/13 05:47:59;;;;;;;9.52;5.32;;;;;;;17.73;61.71;94144.09;5031180;28;20487;-58
2021/08/13 05:50:24;;;;;;;6.65;4.82;;;;;;;17.75;61.58;94130.28;5031085;28;20022;-56
2021/08/13 05:52:49;;;;;;;12.00;5.20;;;;;;;17.92;61.18;94141.41;5031287;28;20026;-57
2021/08/13 05:55:15;;;;;;;15.07;4.80;;;;;;;18.03;60.03;94135.28;5031236;28;20025;-57
2021/08/13 05:57:42;;;;;;;10.45;5.35;;;;;;;18.19;59.53;94128.13;5031228;28;20037;-58
2021/08/13 06:00:08;;;;;;;11.73;4.78;;;;;;;18.24;59.60;94134.75;5031226;28;20048;-58
2021/08/13 06:02:35;;;;;;;9.52;5.53;;;;;;;18.32;59.52;94143.03;5031191;28;20403;-57
2021/08/13 06:05:00;;;;;;;12.07;5.47;;;;;;;18.41;60.05;94139.53;5030740;28;20025;-58
2021/08/13 06:07:25;;;;;;;9.07;4.45;;;;;;;18.61;58.58;94138.28;5035673;28;20078;-58
2021/08/13 06:09:51;;;;;;;6.13;4.97;;;;;;;18.67;58.94;94142.28;5050743;28;20041;-59
2021/08/13 06:12:17;;;;;;;8.43;4.57;;;;;;;18.81;58.42;94151.00;5050576;28;20025;-58
2021/08/13 06:14:43;;;;;;;9.50;4.63;;;;;;;18.94;58.13;94150.56;5050906;28;20039;-58
2021/08/13 06:17:08;;;;;;;7.68;4.47;;;;;;;19.08;55.01;94145.28;5050846;28;20029;-58
2021/08/13 06:19:34;;;;;;;6.60;4.53;;;;;;;19.03;55.32;94138.66;5050873;28;20040;-58
2021/08/13 06:22:00;;;;;;;6.22;4.43;;;;;;;19.22;54.98;94152.66;5050923;28;20064;-59
2021/08/13 06:24:27;;;;;;;8.23;5.10;;;;;;;19.27;54.47;94128.50;5050313;28;20070;-50
2021/08/13 06:26:52;;;;;;;7.95;4.97;;;;;;;19.62;53.06;94147.19;5050755;28;20039;-55
2021/08/13 06:29:20;;;;;;;8.20;4.85;;;;;;;19.74;54.29;94143.78;5050976;28;20056;-58
2021/08/13 06:31:46;;;;;;;6.85;4.50;;;;;;;19.84;53.25;94145.25;5051025;28;20465;-57
2021/08/13 06:34:12;;;;;;;6.53;4.70;;;;;;;19.93;53.07;94140.94;5050543;28;20120;-57
2021/08/13 06:36:37;;;;;;;6.85;4.53;;;;;;;20.13;50.50;94145.91;5050541;28;20051;-58
2021/08/13 06:39:02;;;;;;;7.28;4.03;;;;;;;20.09;50.16;94136.47;5050561;28;20083;-58
2021/08/13 06:41:28;;;;;;;8.45;4.90;;;;;;;20.18;50.79;94135.72;5050835;28;20025;-58
2021/08/13 06:43:53;;;;;;;9.52;4.70;;;;;;;20.30;50.28;94131.72;5050539;28;20078;-58
2021/08/13 06:46:19;;;;;;;9.75;5.22;;;;;;;20.52;50.69;94137.34;5050214;28;20045;-58
2021/08/13 06:48:44;;;;;;;4.38;3.63;;;;;;;20.61;49.64;94117.69;5050634;28;20021;-59
2021/08/13 06:51:09;;;;;;;13.98;4.57;;;;;;;20.63;49.42;94097.44;5050686;28;20464;-58
2021/08/13 06:53:35;;;;;;;9.55;4.55;;;;;;;20.91;48.90;94130.94;5050702;28;20464;-57
2021/08/13 06:56:00;;;;;;;5.50;4.40;;;;;;;20.98;48.31;94132.06;5050242;28;20548;-58
2021/08/13 06:58:26;;;;;;;6.43;4.22;;;;;;;21.18;48.30;94135.50;5044004;28;20617;-60
2021/08/13 07:00:51;;;;;;;11.50;4.63;;;;;;;21.19;47.81;94128.53;5047598;28;20017;-60
2021/08/13 07:03:17;;;;;;;5.72;4.25;;;;;;;21.37;47.33;94141.72;5040194;28;20449;-60
2021/08/13 07:05:42;;;;;;;6.40;4.72;;;;;;;21.54;46.95;94137.88;5039879;28;20482;-59
2021/08/13 07:08:09;;;;;;;10.30;4.55;;;;;;;21.57;47.39;94134.56;5041499;28;20107;-61
2021/08/13 07:10:35;;;;;;;6.43;3.90;;;;;;;21.76;46.38;94136.47;5050498;28;20477;-60
2021/08/13 07:13:00;;;;;;;5.80;4.28;;;;;;;21.89;45.83;94142.28;5049998;28;20070;-58
2021/08/13 07:15:26;;;;;;;5.50;4.05;;;;;;;22.11;46.12;94148.56;5050346;28;20094;-61
2021/08/13 07:17:51;;;;;;;6.28;4.30;;;;;;;22.27;46.00;94143.94;5050325;28;20409;-57
2021/08/13 07:20:17;;;;;;;7.80;4.57;;;;;;;22.52;44.73;94149.72;5050414;28;20413;-63
2021/08/13 07:22:42;;;;;;;21.63;6.22;;;;;;;22.77;44.33;94146.31;5050026;28;20025;-61
2021/08/13 07:25:08;;;;;;;10.80;5.00;;;;;;;23.03;43.51;94144.31;5049449;28;20029;-61
2021/08/13 07:27:33;;;;;;;8.00;4.70;;;;;;;23.22;43.29;94132.75;5047584;28;20497;-62
2021/08/13 07:29:59;;;;;;;8.43;3.92;;;;;;;23.61;41.28;94130.09;5048667;28;20041;-63
2021/08/13 07:32:25;;;;;;;8.88;4.25;;;;;;;24.02;41.24;94126.06;5048332;28;20021;-63
2021/08/13 07:34:51;;;;;;;8.45;5.78;;;;;;;24.90;39.59;94120.19;5048293;28;20440;-63
2021/08/13 07:37:16;;;;;;;10.65;5.47;;;;;;;26.15;36.91;94124.31;5049174;28;20029;-63
2021/08/13 07:39:42;;;;;;;12.77;10.38;;;;;;;27.75;34.12;94130.00;5052252;28;20429;-63
2021/08/13 07:42:08;;;;;;;36.38;16.67;;;;;;;29.88;29.90;94126.63;5052422;28;20029;-63
2021/08/13 07:44:34;;;;;;;179.32;89.30;;;;;;;31.25;28.47;94127.94;5053516;28;20025;-63
2021/08/13 07:46:59;;;;;;;447.88;215.80;;;;;;;32.44;26.26;94136.00;5053341;28;20133;-63
2021/08/13 07:49:24;;;;;;;1044.93;516.50;;;;;;;34.19;24.25;94134.56;5053632;28;20033;-64
2021/08/13 07:51:50;;;;;;;1833.60;845.03;;;;;;;35.61;22.82;94135.13;5053683;28;20025;-64
2021/08/13 07:54:15;;;;;;;1999.90;964.17;;;;;;;37.04;20.34;94132.72;5053606;28;20021;-64
2021/08/13 07:56:41;;;;;;;1999.90;999.90;;;;;;;37.91;19.91;94125.88;5053482;28;20040;-62
2021/08/13 07:59:06;;;;;;;1970.55;999.90;;;;;;;38.02;18.26;94120.84;5053132;28;20079;-60
2021/08/13 08:01:32;;;;;;;1999.90;999.90;;;;;;;38.28;18.04;94138.19;5053067;28;20452;-61
2021/08/13 08:03:57;;;;;;;1999.90;999.90;;;;;;;39.16;17.62;94133.78;5053793;28;20474;-61
2021/08/13 08:06:23;;;;;;;1999.90;999.90;;;;;;;39.65;17.19;94132.16;5053629;28;20104;-61
2021/08/13 08:08:48;;;;;;;1999.90;999.90;;;;;;;38.73;17.25;94126.63;5053623;28;20029;-60
2021/08/13 08:11:13;;;;;;;1999.90;999.90;;;;;;;35.29;20.32;94134.00;5053181;28;20029;-63
2021/08/13 08:13:39;;;;;;;1999.90;999.90;;;;;;;36.39;20.55;94132.25;5053260;28;20102;-64
2021/08/13 08:16:04;;;;;;;1999.90;999.90;;;;;;;35.48;21.19;94124.91;5053129;28;20029;-63
2021/08/13 08:18:31;;;;;;;1999.90;999.90;;;;;;;36.81;19.84;94128.25;5053476;28;20024;-64
2021/08/13 08:20:56;;;;;;;1999.90;999.90;;;;;;;35.89;20.58;94133.97;5053478;28;20025;-64
2021/08/13 08:23:22;;;;;;;1999.90;999.90;;;;;;;37.41;18.87;94130.75;5053322;28;20470;-63
2021/08/13 08:25:47;;;;;;;1999.90;999.90;;;;;;;38.67;17.69;94139.63;5048710;28;20028;-63
2021/08/13 08:28:13;;;;;;;1999.90;999.90;;;;;;;39.38;16.98;94139.47;5053249;28;20031;-64
2021/08/13 08:30:38;;;;;;;1999.90;999.90;;;;;;;40.56;15.47;94135.22;5053241;28;20029;-64
2021/08/13 08:33:04;;;;;;;1999.90;999.90;;;;;;;40.71;15.49;94136.53;5052847;28;20413;-61
2021/08/13 08:35:29;;;;;;;1999.90;999.90;;;;;;;39.08;16.17;94125.84;5052940;28;20025;-59
2021/08/13 08:37:59;;;;;;;1999.90;999.90;;;;;;;39.16;16.38;94134.50;5052808;28;20025;-62
2021/08/13 08:40:30;;;;;;;1999.90;999.90;;;;;;;40.07;16.63;94128.31;5052863;28;20028;-61
2021/08/13 08:42:58;;;;;;;1999.90;999.90;;;;;;;40.29;16.03;94130.31;5053117;28;20032;-62
2021/08/13 08:45:28;;;;;;;1999.90;999.90;;;;;;;41.03;15.54;94128.97;5052835;28;20500;-61
2021/08/13 08:48:22;;;;;;;1999.90;999.90;;;;;;;41.24;14.90;94133.13;5052097;28;20037;-61
2021/08/13 08:50:48;;;;;;;1999.90;999.90;;;;;;;39.89;16.06;94134.94;5042893;28;20187;-62
2021/08/13 08:53:20;;;;;;;1999.90;999.90;;;;;;;40.58;15.43;94128.66;5051381;28;20557;-61
2021/08/13 08:55:46;;;;;;;1999.90;999.90;;;;;;;40.04;15.83;94138.47;5051270;28;20490;-61
2021/08/13 08:58:11;;;;;;;1999.90;999.90;;;;;;;39.86;15.09;94104.56;5051583;28;20028;-61
2021/08/13 09:00:37;;;;;;;1999.90;999.90;;;;;;;38.77;17.09;94120.88;5052753;28;20729;-64
2021/08/13 09:03:02;;;;;;;1999.90;999.90;;;;;;;38.99;16.53;94121.53;5051168;28;20033;-63
2021/08/13 09:05:28;;;;;;;1999.90;999.90;;;;;;;38.48;17.06;94123.78;5051062;28;20044;-64
2021/08/13 09:07:53;;;;;;;1999.90;999.90;;;;;;;38.92;17.14;94119.41;5052423;28;20103;-64
2021/08/13 09:10:19;;;;;;;1999.90;999.90;;;;;;;39.09;16.25;94126.56;5052462;28;20520;-64
2021/08/13 09:12:44;;;;;;;1999.90;999.90;;;;;;;40.39;15.29;94107.84;5052111;28;20025;-64
2021/08/13 09:15:33;;;;;;;1999.90;999.90;;;;;;;40.61;15.18;94089.56;5052364;28;20045;-65
2021/08/13 09:18:19;;;;;;;1999.90;999.90;;;;;;;41.58;13.95;94123.28;5052369;28;20035;-65
2021/08/13 09:20:45;;;;;;;1999.90;999.90;;;;;;;41.81;13.78;94121.53;5052353;28;20107;-65
2021/08/13 09:23:27;;;;;;;1999.90;999.90;;;;;;;42.04;13.56;94125.59;5052290;28;20115;-64
2021/08/13 09:25:57;;;;;;;1999.90;999.90;;;;;;;41.91;13.70;94124.31;5048517;28;20049;-64
2021/08/13 09:28:52;;;;;;;1999.90;999.90;;;;;;;42.68;13.80;94132.59;5051888;28;20516;-64
2021/08/13 09:31:17;;;;;;;1999.90;999.90;;;;;;;42.64;13.69;94126.84;5052147;28;20073;-65
2021/08/13 09:33:48;;;;;;;1999.90;999.90;;;;;;;42.50;13.82;94122.00;5052045;28;20029;-65
2021/08/13 09:36:19;;;;;;;1999.90;999.90;;;;;;;42.63;13.59;94126.13;5051948;28;20025;-64
2021/08/13 09:38:45;;;;;;;1999.90;999.90;;;;;;;42.16;13.66;94119.63;5052072;28;20029;-64
2021/08/13 09:41:15;;;;;;;1999.90;999.90;;;;;;;42.75;13.36;94114.31;5051956;28;20414;-64
2021/08/13 09:43:58;;;;;;;1999.90;999.90;;;;;;;42.86;13.19;94127.19;5051940;28;20033;-64
2021/08/13 09:46:24;;;;;;;1999.90;999.90;;;;;;;42.31;13.63;94126.63;5050300;28;20187;-65
2021/08/13 09:48:50;;;;;;;1999.90;999.90;;;;;;;41.86;13.89;94120.75;5051258;28;20115;-64
2021/08/13 09:51:48;;;;;;;1999.90;999.90;;;;;;;41.76;13.95;94117.28;5043895;28;20155;-66
2021/08/13 09:54:13;;;;;;;1999.90;999.90;;;;;;;41.21;14.24;94128.78;5007209;28;20040;-63
2021/08/13 09:56:40;;;;;;;1999.90;999.90;;;;;;;41.21;15.27;94129.50;5048139;28;20025;-64
2021/08/13 09:59:10;;;;;;;1999.90;999.90;;;;;;;41.18;14.93;94139.69;5042233;28;20029;-59
2021/08/13 10:01:39;;;;;;;1999.90;999.90;;;;;;;40.99;14.90;94132.66;5029953;28;20569;-60
2021/08/13 10:04:05;;;;;;;1999.90;999.90;;;;;;;41.50;14.42;94136.41;5048103;28;20508;-60
2021/08/13 10:06:32;;;;;;;1999.90;999.90;;;;;;;41.25;15.20;94132.38;5048219;28;20067;-59
2021/08/13 10:08:57;;;;;;;1999.90;999.90;;;;;;;41.71;14.90;94136.19;5046895;28;20162;-60
2021/08/13 10:11:23;;;;;;;1999.90;999.90;;;;;;;42.12;14.24;94148.69;5047714;28;20115;-59
2021/08/13 10:13:49;;;;;;;1999.90;999.90;;;;;;;41.46;15.00;94138.66;5048294;28;20036;-59
2021/08/13 10:16:25;;;;;;;1999.90;999.90;;;;;;;42.37;14.21;94143.94;5046838;28;20147;-59
2021/08/13 10:18:55;;;;;;;1999.90;999.90;;;;;;;42.17;14.65;94144.28;5047538;28;20116;-59
2021/08/13 10:21:30;;;;;;;1999.90;999.90;;;;;;;41.78;14.68;94152.06;5047485;28;20037;-59
2021/08/13 10:23:56;;;;;;;1999.90;999.90;;;;;;;41.27;15.24;94149.03;5047783;28;20545;-63
2021/08/13 10:26:22;;;;;;;1999.90;999.90;;;;;;;40.96;15.77;94130.53;5047997;28;20436;-60
2021/08/13 10:28:50;;;;;;;1999.90;999.90;;;;;;;40.45;15.54;94145.44;5047500;28;20048;-61
2021/08/13 10:31:18;;;;;;;1999.90;999.90;;;;;;;40.65;15.88;94147.44;5047702;28;20035;-62
2021/08/13 10:33:45;;;;;;;1999.90;999.90;;;;;;;40.30;16.45;94141.19;5047467;28;20112;-60
2021/08/13 10:36:12;;;;;;;1999.90;999.90;;;;;;;41.27;15.59;94143.94;5047216;28;20033;-61
2021/08/13 10:38:38;;;;;;;1999.90;999.90;;;;;;;40.99;16.27;94152.91;5048009;28;20464;-58
2021/08/13 10:41:04;;;;;;;1999.90;999.90;;;;;;;41.08;16.01;94124.59;5047793;28;20112;-58
2021/08/13 10:43:33;;;;;;;1999.90;999.90;;;;;;;40.94;16.17;94139.94;5047081;28;20075;-59
2021/08/13 10:46:00;;;;;;;1999.90;999.90;;;;;;;41.61;15.31;94148.59;5045467;28;20132;-58
2021/08/13 10:48:27;;;;;;;1999.90;999.90;;;;;;;41.52;15.61;94156.69;5046135;28;20413;-59
2021/08/13 10:50:57;;;;;;;1999.90;999.90;;;;;;;41.47;15.73;94143.72;5046278;28;20075;-58
2021/08/13 10:53:31;;;;;;;1999.90;999.90;;;;;;;41.79;16.04;94145.50;5047493;28;20029;-57
2021/08/13 10:55:58;;;;;;;1999.90;999.90;;;;;;;41.86;15.72;94154.84;5047251;28;20033;-58
2021/08/13 10:58:43;;;;;;;1999.90;999.90;;;;;;;41.53;15.33;94132.03;5046938;28;20033;-59
2021/08/13 11:01:15;;;;;;;1999.90;999.90;;;;;;;40.99;17.05;94141.34;5046556;28;20094;-58
2021/08/13 11:04:00;;;;;;;1999.90;999.90;;;;;;;40.92;16.78;94142.84;5047132;28;20033;-57
2021/08/13 11:06:38;;;;;;;1999.90;999.90;;;;;;;40.83;16.74;94143.69;5046646;28;20029;-57
2021/08/13 11:09:11;;;;;;;1999.90;999.90;;;;;;;40.40;17.20;94140.38;5045598;28;20040;-59
2021/08/13 11:11:57;;;;;;;1999.90;999.90;;;;;;;40.02;17.52;94139.22;5047010;28;20442;-58
2021/08/13 11:14:29;;;;;;;1999.90;999.90;;;;;;;39.71;17.50;94140.81;5036454;28;20071;-60
2021/08/13 11:16:56;;;;;;;1999.90;999.90;;;;;;;40.04;17.69;94130.53;5047305;28;20055;-58
2021/08/13 11:19:21;;;;;;;1999.90;999.90;;;;;;;39.62;17.60;94132.91;5047048;28;20119;-57